createdAt,value
2019-01-18T00:01:11.863Z,1005.47
2019-01-18T00:06:07.683Z,1005.57
2019-01-18T00:11:03.443Z,1005.68
2019-01-18T00:15:59.047Z,1005.77
2019-01-18T00:20:54.857Z,1005.87
2019-01-18T00:25:51.594Z,1006.03
2019-01-18T00:30:48.068Z,1006.09
2019-01-18T00:35:43.667Z,1006.18
2019-01-18T00:40:39.345Z,1006.29
2019-01-18T00:45:35.756Z,1006.23
2019-01-18T00:50:31.529Z,1006.43
2019-01-18T00:55:28.154Z,1006.52
2019-01-18T01:00:23.141Z,1006.45
2019-01-18T01:05:19.062Z,1006.65
2019-01-18T01:10:15.524Z,1006.75
2019-01-18T01:15:10.960Z,1006.85
2019-01-18T01:20:07.196Z,1006.95
2019-01-18T01:25:03.952Z,1007.10
2019-01-18T01:29:59.367Z,1007.27
2019-01-18T01:34:55.148Z,1007.43
2019-01-18T01:39:51.899Z,1007.61
2019-01-18T01:44:47.249Z,1007.68
2019-01-18T01:49:44.129Z,1007.77
2019-01-18T01:54:40.352Z,1007.79
2019-01-18T01:59:35.606Z,1007.95
2019-01-18T02:04:31.341Z,1008.03
2019-01-18T02:09:26.776Z,1008.13
2019-01-18T02:14:21.997Z,1008.24
2019-01-18T02:19:17.506Z,1008.34
2019-01-18T02:24:14.582Z,1008.44
2019-01-18T02:29:09.883Z,1008.62
2019-01-18T02:34:05.575Z,1008.75
2019-01-18T02:39:01.055Z,1008.73
2019-01-18T02:43:56.732Z,1008.63
2019-01-18T02:48:53.914Z,1008.69
2019-01-18T02:53:49.374Z,1008.82
2019-01-18T02:58:45.124Z,1008.61
2019-01-18T03:03:41.455Z,1008.81
2019-01-18T03:08:38.107Z,1008.89
2019-01-18T03:13:34.426Z,1008.93
2019-01-18T03:18:29.792Z,1008.94
2019-01-18T03:23:25.311Z,1009.01
2019-01-18T03:28:20.809Z,1009.13
2019-01-18T03:33:17.915Z,1009.18
2019-01-18T03:38:13.329Z,1009.44
2019-01-18T03:43:10.251Z,1009.44
2019-01-18T03:48:05.489Z,1009.64
2019-01-18T03:53:01.049Z,1009.54
2019-01-18T03:57:56.800Z,1009.66
2019-01-18T04:02:52.238Z,1009.70
2019-01-18T04:07:49.035Z,1009.67
2019-01-18T04:12:44.498Z,1009.72
2019-01-18T04:17:41.090Z,1009.78
2019-01-18T04:22:37.570Z,1009.75
2019-01-18T04:27:32.826Z,1009.76
2019-01-18T04:32:28.418Z,1009.82
2019-01-18T04:37:24.357Z,1009.79
2019-01-18T04:42:20.990Z,1009.84
2019-01-18T04:47:16.569Z,1009.93
2019-01-18T04:52:12.194Z,1009.95
2019-01-18T04:57:07.816Z,1010.02
2019-01-18T05:02:04.339Z,1009.99
2019-01-18T05:07:00.048Z,1010.14
2019-01-18T05:11:55.648Z,1010.21
2019-01-18T05:16:51.260Z,1010.34
2019-01-18T05:21:47.862Z,1010.43
2019-01-18T05:26:44.717Z,1010.62
2019-01-18T05:31:40.723Z,1010.63
2019-01-18T05:36:36.433Z,1010.82
2019-01-18T05:41:32.051Z,1010.82
2019-01-18T05:46:28.591Z,1010.96
2019-01-18T05:51:23.708Z,1010.98
2019-01-18T05:56:19.964Z,1011.00
2019-01-18T06:01:15.970Z,1011.04
2019-01-18T06:06:11.638Z,1011.02
2019-01-18T06:11:07.252Z,1011.11
2019-01-18T06:16:02.813Z,1011.26
2019-01-18T06:20:58.332Z,1011.24
2019-01-18T06:25:53.857Z,1011.34
2019-01-18T06:30:49.423Z,1011.29
2019-01-18T06:35:46.130Z,1011.31
2019-01-18T06:40:41.505Z,1011.36
2019-01-18T06:45:39.082Z,1011.44
2019-01-18T06:50:35.290Z,1011.45
2019-01-18T06:55:31.661Z,1011.55
2019-01-18T07:00:27.979Z,1011.69
2019-01-18T07:05:23.299Z,1011.83
2019-01-18T07:10:20.843Z,1011.76
2019-01-18T07:15:16.258Z,1011.90
2019-01-18T07:20:11.838Z,1011.96
2019-01-18T07:25:07.606Z,1011.99
2019-01-18T07:30:03.003Z,1012.11
2019-01-18T07:34:58.910Z,1012.10
2019-01-18T07:39:54.494Z,1012.19
2019-01-18T07:44:50.030Z,1012.32
2019-01-18T07:49:46.628Z,1012.40
2019-01-18T07:54:44.133Z,1012.46
2019-01-18T07:59:39.375Z,1012.51
2019-01-18T08:04:34.902Z,1012.55
2019-01-18T08:09:30.615Z,1012.54
2019-01-18T08:14:26.311Z,1012.66
2019-01-18T08:19:21.950Z,1012.69
2019-01-18T08:24:17.479Z,1012.77
2019-01-18T08:29:14.214Z,1012.82
2019-01-18T08:34:09.656Z,1012.86
2019-01-18T08:39:05.594Z,1012.96
2019-01-18T08:44:01.414Z,1012.96
2019-01-18T08:49:04.354Z,1013.01
2019-01-18T08:53:58.277Z,1012.96
2019-01-18T08:58:53.973Z,1012.92
2019-01-18T09:03:50.690Z,1013.01
2019-01-18T09:08:46.093Z,1013.08
2019-01-18T09:13:41.887Z,1013.21
2019-01-18T09:18:38.383Z,1013.26
2019-01-18T09:23:33.947Z,1013.22
2019-01-18T09:28:29.835Z,1013.30
2019-01-18T09:33:25.508Z,1013.42
2019-01-18T09:38:20.852Z,1013.37
2019-01-18T09:43:17.837Z,1013.52
2019-01-18T09:48:15.111Z,1013.42
2019-01-18T09:53:11.350Z,1013.49
2019-01-18T09:58:07.419Z,1013.42
2019-01-18T10:03:03.183Z,1013.50
2019-01-18T10:07:58.753Z,1013.55
2019-01-18T10:12:54.519Z,1013.63
2019-01-18T10:17:50.865Z,1013.64
2019-01-18T10:22:46.568Z,1013.64
2019-01-18T10:27:42.476Z,1013.57
2019-01-18T10:32:38.005Z,1013.58
2019-01-18T10:37:33.671Z,1013.47
2019-01-18T10:42:29.697Z,1013.52
2019-01-18T10:47:27.010Z,1013.54
2019-01-18T10:52:22.165Z,1013.52
2019-01-18T10:57:17.978Z,1013.54
2019-01-18T11:02:15.135Z,1013.54
2019-01-18T11:07:10.577Z,1013.68
2019-01-18T11:12:06.705Z,1013.68
2019-01-18T11:17:03.447Z,1013.73
2019-01-18T11:21:59.880Z,1013.72
2019-01-18T11:26:56.011Z,1013.72
2019-01-18T11:31:52.884Z,1013.74
2019-01-18T11:36:48.269Z,1013.77
2019-01-18T11:41:44.200Z,1013.68
2019-01-18T11:46:39.772Z,1013.60
2019-01-18T11:51:37.808Z,1013.64
2019-01-18T11:56:36.387Z,1013.57
2019-01-18T12:01:32.605Z,1013.62
2019-01-18T12:06:28.214Z,1013.60
2019-01-18T12:11:25.669Z,1013.63
2019-01-18T12:16:23.487Z,1013.68
2019-01-18T12:21:19.467Z,1013.59
2019-01-18T12:26:14.754Z,1013.57
2019-01-18T12:31:11.504Z,1013.48
2019-01-18T12:36:06.893Z,1013.45
2019-01-18T12:41:02.520Z,1013.49
2019-01-18T12:45:58.084Z,1013.50
2019-01-18T12:50:53.727Z,1013.48
2019-01-18T12:55:49.859Z,1013.44
2019-01-18T13:00:45.209Z,1013.49
2019-01-18T13:05:41.664Z,1013.40
2019-01-18T13:10:37.369Z,1013.31
2019-01-18T13:15:33.380Z,1013.26
2019-01-18T13:20:29.390Z,1013.20
2019-01-18T13:25:28.270Z,1013.34
2019-01-18T13:30:27.468Z,1013.28
2019-01-18T13:35:22.281Z,1013.34
2019-01-18T13:40:18.253Z,1013.35
2019-01-18T13:45:13.960Z,1013.32
2019-01-18T13:50:10.559Z,1013.35
2019-01-18T13:55:05.769Z,1013.39
2019-01-18T14:00:01.476Z,1013.42
2019-01-18T14:04:58.743Z,1013.38
2019-01-18T14:09:57.368Z,1013.44
2019-01-18T14:14:52.263Z,1013.48
2019-01-18T14:19:47.734Z,1013.45
2019-01-18T14:24:45.149Z,1013.41
2019-01-18T14:29:40.526Z,1013.48
2019-01-18T14:34:36.421Z,1013.51
2019-01-18T14:39:33.542Z,1013.50
2019-01-18T14:44:28.899Z,1013.55
2019-01-18T14:49:24.409Z,1013.45
2019-01-18T14:54:19.968Z,1013.65
2019-01-18T14:59:15.843Z,1013.61
2019-01-18T15:04:11.481Z,1013.56
2019-01-18T15:09:08.227Z,1013.62
2019-01-18T15:14:04.684Z,1013.59
2019-01-18T15:19:00.677Z,1013.57
2019-01-18T15:23:57.001Z,1013.51
2019-01-18T15:28:53.632Z,1013.57
2019-01-18T15:33:48.904Z,1013.56
2019-01-18T15:38:44.531Z,1013.60
2019-01-18T15:43:43.257Z,1013.64
2019-01-18T15:48:38.048Z,1013.66
2019-01-18T15:53:33.571Z,1013.72
2019-01-18T15:58:30.779Z,1013.72
2019-01-18T16:03:30.915Z,1013.75
2019-01-18T16:08:25.341Z,1013.84
2019-01-18T16:13:21.039Z,1013.74
2019-01-18T16:18:16.200Z,1013.81
2019-01-18T16:23:11.702Z,1013.79
2019-01-18T16:28:07.662Z,1013.84
2019-01-18T16:33:03.219Z,1013.85
2019-01-18T16:37:59.044Z,1013.82
2019-01-18T16:42:55.614Z,1013.68
2019-01-18T16:47:50.866Z,1013.79
2019-01-18T16:52:46.647Z,1013.75
2019-01-18T16:57:43.110Z,1013.68
2019-01-18T17:02:38.562Z,1013.61
2019-01-18T17:07:34.296Z,1013.71
2019-01-18T17:12:31.062Z,1013.59
2019-01-18T17:17:26.645Z,1013.77
2019-01-18T17:22:22.392Z,1013.70
2019-01-18T17:27:18.865Z,1013.68
2019-01-18T17:32:14.336Z,1013.71
2019-01-18T17:37:10.281Z,1013.73
2019-01-18T17:42:05.731Z,1013.67
2019-01-18T17:47:02.790Z,1013.60
2019-01-18T17:51:58.660Z,1013.63
2019-01-18T17:56:59.650Z,1013.70
2019-01-18T18:01:57.163Z,1013.71
2019-01-18T18:06:55.914Z,1013.66
2019-01-18T18:11:50.409Z,1013.62
2019-01-18T18:16:45.527Z,1013.77
2019-01-18T18:21:41.173Z,1013.79
2019-01-18T18:26:41.675Z,1013.73
2019-01-18T18:31:39.451Z,1013.82
2019-01-18T18:36:35.087Z,1013.78
2019-01-18T18:41:33.383Z,1013.77
2019-01-18T18:46:28.466Z,1013.68
2019-01-18T18:51:25.207Z,1013.73
2019-01-18T18:56:21.660Z,1013.79
2019-01-18T19:01:17.073Z,1013.71
2019-01-18T19:06:12.909Z,1013.80
2019-01-18T19:11:08.648Z,1013.78
2019-01-18T19:16:04.509Z,1013.73
2019-01-18T19:21:00.052Z,1013.71
2019-01-18T19:25:56.849Z,1013.75
2019-01-18T19:30:51.943Z,1013.65
2019-01-18T19:35:48.649Z,1013.72
2019-01-18T19:40:43.911Z,1013.76
2019-01-18T19:45:39.775Z,1013.79
2019-01-18T19:50:36.435Z,1013.81
2019-01-18T19:55:32.548Z,1013.78
2019-01-18T20:00:28.208Z,1013.81
2019-01-18T20:05:23.778Z,1013.73
2019-01-18T20:10:20.124Z,1013.89
2019-01-18T20:15:16.982Z,1013.85
2019-01-18T20:20:12.435Z,1013.78
2019-01-18T20:25:08.929Z,1013.92
2019-01-18T20:30:04.407Z,1013.78
2019-01-18T20:35:01.004Z,1013.87
2019-01-18T20:39:56.830Z,1013.83
2019-01-18T20:44:52.145Z,1013.72
2019-01-18T20:49:48.853Z,1013.79
2019-01-18T20:54:46.238Z,1013.80
2019-01-18T20:59:42.578Z,1013.77
2019-01-18T21:04:37.928Z,1013.70
2019-01-18T21:09:34.557Z,1013.76
2019-01-18T21:14:29.737Z,1013.77
2019-01-18T21:19:25.182Z,1013.69
2019-01-18T21:24:20.664Z,1013.68
2019-01-18T21:29:17.012Z,1013.78
2019-01-18T21:34:13.479Z,1013.65
2019-01-18T21:39:08.665Z,1013.78
2019-01-18T21:44:04.144Z,1013.77
2019-01-18T21:48:59.851Z,1013.77
2019-01-18T21:53:56.869Z,1013.78
2019-01-18T21:58:52.200Z,1013.86
2019-01-18T22:03:48.595Z,1013.81
2019-01-18T22:08:44.921Z,1013.76
2019-01-18T22:13:40.229Z,1013.84
2019-01-18T22:18:36.366Z,1013.82
2019-01-18T22:23:31.991Z,1013.77
2019-01-18T22:28:27.611Z,1013.77
2019-01-18T22:33:23.227Z,1013.93
2019-01-18T22:38:18.841Z,1013.90
2019-01-18T22:43:14.362Z,1013.93
2019-01-18T22:48:10.968Z,1013.91
2019-01-18T22:53:06.127Z,1013.91
2019-01-18T22:58:02.812Z,1013.88
2019-01-18T23:02:58.091Z,1013.91
2019-01-18T23:07:53.716Z,1013.93
2019-01-18T23:12:49.385Z,1013.87
2019-01-18T23:17:46.066Z,1013.79
2019-01-18T23:22:41.604Z,1013.73
2019-01-18T23:27:38.333Z,1013.80
2019-01-18T23:32:33.686Z,1013.75
2019-01-18T23:37:30.627Z,1013.71
2019-01-18T23:42:26.972Z,1013.59
2019-01-18T23:47:23.305Z,1013.65
2019-01-18T23:52:18.926Z,1013.57
2019-01-18T23:57:15.022Z,1013.53
